sensor_id;sensor_type;location;lat;lon;timestamp;P1;durP1;ratioP1;P2;durP2;ratioP2
15114;SDS011;7658;51.456;7.622;2022-11-20T00:00:36;26.97;;;18.07;;
15114;SDS011;7658;51.456;7.622;2022-11-20T00:03:02;30.50;;;19.73;;
15114;SDS011;7658;51.456;7.622;2022-11-20T00:05:27;33.10;;;20.67;;
15114;SDS011;7658;51.456;7.622;2022-11-20T00:07:53;26.90;;;18.93;;
15114;SDS011;7658;51.456;7.622;2022-11-20T00:10:19;23.40;;;16.40;;
15114;SDS011;7658;51.456;7.622;2022-11-20T00:12:44;28.40;;;19.40;;
15114;SDS011;7658;51.456;7.622;2022-11-20T00:15:10;29.33;;;19.47;;
15114;SDS011;7658;51.456;7.622;2022-11-20T00:17:36;28.93;;;18.33;;
15114;SDS011;7658;51.456;7.622;2022-11-20T00:20:02;31.23;;;20.30;;
15114;SDS011;7658;51.456;7.622;2022-11-20T00:22:29;29.23;;;20.10;;
15114;SDS011;7658;51.456;7.622;2022-11-20T00:24:54;29.13;;;20.70;;
15114;SDS011;7658;51.456;7.622;2022-11-20T00:27:22;30.60;;;19.57;;
15114;SDS011;7658;51.456;7.622;2022-11-20T00:29:47;28.13;;;18.97;;
15114;SDS011;7658;51.456;7.622;2022-11-20T00:32:13;30.03;;;19.70;;
15114;SDS011;7658;51.456;7.622;2022-11-20T00:34:39;28.63;;;20.37;;
15114;SDS011;7658;51.456;7.622;2022-11-20T00:37:05;28.17;;;20.63;;
15114;SDS011;7658;51.456;7.622;2022-11-20T00:39:30;28.87;;;19.43;;
15114;SDS011;7658;51.456;7.622;2022-11-20T00:41:56;29.50;;;20.93;;
15114;SDS011;7658;51.456;7.622;2022-11-20T00:44:22;27.77;;;20.13;;
15114;SDS011;7658;51.456;7.622;2022-11-20T00:46:47;33.37;;;21.00;;
15114;SDS011;7658;51.456;7.622;2022-11-20T00:49:13;31.63;;;20.80;;
15114;SDS011;7658;51.456;7.622;2022-11-20T00:51:39;32.83;;;21.63;;
15114;SDS011;7658;51.456;7.622;2022-11-20T00:54:04;29.47;;;19.87;;
15114;SDS011;7658;51.456;7.622;2022-11-20T00:56:30;30.83;;;20.33;;
15114;SDS011;7658;51.456;7.622;2022-11-20T00:58:58;32.93;;;21.93;;
15114;SDS011;7658;51.456;7.622;2022-11-20T01:01:25;36.97;;;22.80;;
15114;SDS011;7658;51.456;7.622;2022-11-20T01:03:54;29.37;;;19.60;;
15114;SDS011;7658;51.456;7.622;2022-11-20T01:06:22;32.90;;;21.50;;
15114;SDS011;7658;51.456;7.622;2022-11-20T01:08:50;28.83;;;20.47;;
15114;SDS011;7658;51.456;7.622;2022-11-20T01:11:20;29.47;;;20.47;;
15114;SDS011;7658;51.456;7.622;2022-11-20T01:13:47;30.13;;;21.23;;
15114;SDS011;7658;51.456;7.622;2022-11-20T01:16:16;34.90;;;22.57;;
15114;SDS011;7658;51.456;7.622;2022-11-20T01:18:47;34.50;;;21.80;;
15114;SDS011;7658;51.456;7.622;2022-11-20T01:21:15;32.37;;;21.97;;
15114;SDS011;7658;51.456;7.622;2022-11-20T01:23:46;34.20;;;22.00;;
15114;SDS011;7658;51.456;7.622;2022-11-20T01:26:14;33.77;;;22.40;;
15114;SDS011;7658;51.456;7.622;2022-11-20T01:28:42;34.53;;;22.17;;
15114;SDS011;7658;51.456;7.622;2022-11-20T01:31:18;37.37;;;23.13;;
15114;SDS011;7658;51.456;7.622;2022-11-20T01:33:44;35.30;;;22.50;;
15114;SDS011;7658;51.456;7.622;2022-11-20T01:36:12;32.50;;;22.10;;
15114;SDS011;7658;51.456;7.622;2022-11-20T01:38:39;34.80;;;22.83;;
15114;SDS011;7658;51.456;7.622;2022-11-20T01:41:05;33.43;;;20.77;;
15114;SDS011;7658;51.456;7.622;2022-11-20T01:43:32;36.00;;;22.67;;
15114;SDS011;7658;51.456;7.622;2022-11-20T01:46:17;33.63;;;21.47;;
15114;SDS011;7658;51.456;7.622;2022-11-20T01:51:21;30.63;;;21.13;;
15114;SDS011;7658;51.456;7.622;2022-11-20T01:53:54;32.77;;;22.03;;
15114;SDS011;7658;51.456;7.622;2022-11-20T01:56:23;30.77;;;21.33;;
15114;SDS011;7658;51.456;7.622;2022-11-20T01:58:51;32.63;;;21.07;;
15114;SDS011;7658;51.456;7.622;2022-11-20T02:01:21;31.23;;;20.53;;
15114;SDS011;7658;51.456;7.622;2022-11-20T02:03:47;32.67;;;22.30;;
15114;SDS011;7658;51.456;7.622;2022-11-20T02:06:16;31.27;;;22.67;;
15114;SDS011;7658;51.456;7.622;2022-11-20T02:08:51;35.30;;;21.77;;
15114;SDS011;7658;51.456;7.622;2022-11-20T02:11:18;35.97;;;22.80;;
15114;SDS011;7658;51.456;7.622;2022-11-20T02:13:44;35.70;;;21.27;;
15114;SDS011;7658;51.456;7.622;2022-11-20T02:16:21;33.90;;;23.03;;
15114;SDS011;7658;51.456;7.622;2022-11-20T02:18:53;35.33;;;22.73;;
15114;SDS011;7658;51.456;7.622;2022-11-20T02:24:09;39.40;;;25.07;;
15114;SDS011;7658;51.456;7.622;2022-11-20T02:26:50;35.43;;;22.70;;
15114;SDS011;7658;51.456;7.622;2022-11-20T02:29:22;32.83;;;22.67;;
15114;SDS011;7658;51.456;7.622;2022-11-20T02:31:52;37.40;;;23.27;;
15114;SDS011;7658;51.456;7.622;2022-11-20T02:34:21;36.00;;;24.97;;
15114;SDS011;7658;51.456;7.622;2022-11-20T02:36:47;39.33;;;24.77;;
15114;SDS011;7658;51.456;7.622;2022-11-20T02:39:14;36.50;;;23.13;;
15114;SDS011;7658;51.456;7.622;2022-11-20T02:41:42;36.70;;;24.30;;
15114;SDS011;7658;51.456;7.622;2022-11-20T02:44:07;36.67;;;23.13;;
15114;SDS011;7658;51.456;7.622;2022-11-20T02:46:33;33.70;;;23.97;;
15114;SDS011;7658;51.456;7.622;2022-11-20T02:49:00;36.40;;;23.77;;
15114;SDS011;7658;51.456;7.622;2022-11-20T02:51:30;32.53;;;22.20;;
15114;SDS011;7658;51.456;7.622;2022-11-20T02:53:57;33.07;;;22.63;;
15114;SDS011;7658;51.456;7.622;2022-11-20T02:56:23;40.87;;;24.93;;
15114;SDS011;7658;51.456;7.622;2022-11-20T02:58:49;32.60;;;22.57;;
15114;SDS011;7658;51.456;7.622;2022-11-20T03:01:15;35.17;;;23.60;;
15114;SDS011;7658;51.456;7.622;2022-11-20T03:03:41;31.53;;;23.13;;
15114;SDS011;7658;51.456;7.622;2022-11-20T03:06:06;32.47;;;22.27;;
15114;SDS011;7658;51.456;7.622;2022-11-20T03:08:32;34.17;;;23.37;;
15114;SDS011;7658;51.456;7.622;2022-11-20T03:11:02;33.63;;;23.07;;
15114;SDS011;7658;51.456;7.622;2022-11-20T03:13:32;31.13;;;22.43;;
15114;SDS011;7658;51.456;7.622;2022-11-20T03:16:03;42.27;;;24.53;;
15114;SDS011;7658;51.456;7.622;2022-11-20T03:18:37;34.27;;;22.93;;
15114;SDS011;7658;51.456;7.622;2022-11-20T03:21:04;37.70;;;21.90;;
15114;SDS011;7658;51.456;7.622;2022-11-20T03:23:30;35.20;;;22.87;;
15114;SDS011;7658;51.456;7.622;2022-11-20T03:26:07;31.00;;;21.23;;
15114;SDS011;7658;51.456;7.622;2022-11-20T03:28:40;34.37;;;22.27;;
15114;SDS011;7658;51.456;7.622;2022-11-20T03:31:08;31.67;;;22.27;;
15114;SDS011;7658;51.456;7.622;2022-11-20T03:33:36;31.33;;;20.37;;
15114;SDS011;7658;51.456;7.622;2022-11-20T03:36:05;34.57;;;23.33;;
15114;SDS011;7658;51.456;7.622;2022-11-20T03:38:33;30.37;;;20.83;;
15114;SDS011;7658;51.456;7.622;2022-11-20T03:41:00;32.40;;;21.33;;
15114;SDS011;7658;51.456;7.622;2022-11-20T03:43:31;34.83;;;22.00;;
15114;SDS011;7658;51.456;7.622;2022-11-20T03:45:58;35.40;;;23.07;;
15114;SDS011;7658;51.456;7.622;2022-11-20T03:48:24;31.13;;;20.97;;
15114;SDS011;7658;51.456;7.622;2022-11-20T03:50:51;34.70;;;22.17;;
15114;SDS011;7658;51.456;7.622;2022-11-20T03:53:17;28.43;;;21.33;;
15114;SDS011;7658;51.456;7.622;2022-11-20T03:55:43;29.90;;;20.83;;
15114;SDS011;7658;51.456;7.622;2022-11-20T03:58:09;35.67;;;22.63;;
15114;SDS011;7658;51.456;7.622;2022-11-20T04:00:35;30.53;;;21.17;;
15114;SDS011;7658;51.456;7.622;2022-11-20T04:03:01;29.90;;;20.73;;
15114;SDS011;7658;51.456;7.622;2022-11-20T04:05:27;30.13;;;20.87;;
15114;SDS011;7658;51.456;7.622;2022-11-20T04:07:53;34.77;;;21.20;;
15114;SDS011;7658;51.456;7.622;2022-11-20T04:10:19;30.63;;;20.70;;
15114;SDS011;7658;51.456;7.622;2022-11-20T04:12:45;28.33;;;20.47;;
15114;SDS011;7658;51.456;7.622;2022-11-20T04:15:11;29.00;;;21.17;;
15114;SDS011;7658;51.456;7.622;2022-11-20T04:17:36;33.50;;;20.13;;
15114;SDS011;7658;51.456;7.622;2022-11-20T04:20:02;32.27;;;20.40;;
15114;SDS011;7658;51.456;7.622;2022-11-20T04:22:28;30.70;;;19.93;;
15114;SDS011;7658;51.456;7.622;2022-11-20T04:24:54;26.43;;;20.13;;
15114;SDS011;7658;51.456;7.622;2022-11-20T04:27:20;27.97;;;21.23;;
15114;SDS011;7658;51.456;7.622;2022-11-20T04:29:45;32.67;;;21.90;;
15114;SDS011;7658;51.456;7.622;2022-11-20T04:32:11;31.10;;;21.77;;
15114;SDS011;7658;51.456;7.622;2022-11-20T04:34:37;35.33;;;21.80;;
15114;SDS011;7658;51.456;7.622;2022-11-20T04:37:02;26.70;;;20.43;;
15114;SDS011;7658;51.456;7.622;2022-11-20T04:39:28;29.70;;;21.33;;
15114;SDS011;7658;51.456;7.622;2022-11-20T04:41:54;28.20;;;20.63;;
15114;SDS011;7658;51.456;7.622;2022-11-20T04:44:38;29.63;;;19.33;;
15114;SDS011;7658;51.456;7.622;2022-11-20T04:47:04;31.33;;;21.33;;
15114;SDS011;7658;51.456;7.622;2022-11-20T04:49:30;30.73;;;21.93;;
15114;SDS011;7658;51.456;7.622;2022-11-20T04:51:57;31.30;;;20.60;;
15114;SDS011;7658;51.456;7.622;2022-11-20T04:54:23;27.07;;;21.30;;
15114;SDS011;7658;51.456;7.622;2022-11-20T04:56:49;31.00;;;21.70;;
15114;SDS011;7658;51.456;7.622;2022-11-20T04:59:15;30.73;;;21.27;;
15114;SDS011;7658;51.456;7.622;2022-11-20T05:01:41;26.90;;;20.33;;
15114;SDS011;7658;51.456;7.622;2022-11-20T05:04:07;30.00;;;21.27;;
15114;SDS011;7658;51.456;7.622;2022-11-20T05:06:33;30.33;;;20.77;;
15114;SDS011;7658;51.456;7.622;2022-11-20T05:08:59;29.97;;;20.50;;
15114;SDS011;7658;51.456;7.622;2022-11-20T05:11:26;30.27;;;20.83;;
15114;SDS011;7658;51.456;7.622;2022-11-20T05:13:54;28.13;;;20.03;;
15114;SDS011;7658;51.456;7.622;2022-11-20T05:16:21;33.50;;;22.27;;
15114;SDS011;7658;51.456;7.622;2022-11-20T05:18:48;28.40;;;20.33;;
15114;SDS011;7658;51.456;7.622;2022-11-20T05:21:14;28.67;;;20.37;;
15114;SDS011;7658;51.456;7.622;2022-11-20T05:23:41;29.60;;;20.93;;
15114;SDS011;7658;51.456;7.622;2022-11-20T05:26:08;28.37;;;19.97;;
15114;SDS011;7658;51.456;7.622;2022-11-20T05:28:37;31.50;;;20.27;;
15114;SDS011;7658;51.456;7.622;2022-11-20T05:31:06;30.70;;;19.60;;
15114;SDS011;7658;51.456;7.622;2022-11-20T05:33:34;29.87;;;20.73;;
15114;SDS011;7658;51.456;7.622;2022-11-20T05:36:01;31.17;;;19.97;;
15114;SDS011;7658;51.456;7.622;2022-11-20T05:38:29;32.13;;;21.40;;
15114;SDS011;7658;51.456;7.622;2022-11-20T05:41:02;28.77;;;20.00;;
15114;SDS011;7658;51.456;7.622;2022-11-20T05:43:31;27.07;;;19.27;;
15114;SDS011;7658;51.456;7.622;2022-11-20T05:45:57;29.43;;;20.17;;
15114;SDS011;7658;51.456;7.622;2022-11-20T05:48:23;28.10;;;19.73;;
15114;SDS011;7658;51.456;7.622;2022-11-20T05:50:49;32.87;;;21.40;;
15114;SDS011;7658;51.456;7.622;2022-11-20T05:53:14;26.90;;;19.93;;
15114;SDS011;7658;51.456;7.622;2022-11-20T05:55:40;25.57;;;19.93;;
15114;SDS011;7658;51.456;7.622;2022-11-20T05:58:06;28.17;;;20.57;;
15114;SDS011;7658;51.456;7.622;2022-11-20T06:00:31;26.60;;;19.93;;
15114;SDS011;7658;51.456;7.622;2022-11-20T06:02:57;28.00;;;19.00;;
15114;SDS011;7658;51.456;7.622;2022-11-20T06:05:23;30.20;;;19.37;;
15114;SDS011;7658;51.456;7.622;2022-11-20T06:07:48;27.60;;;18.50;;
15114;SDS011;7658;51.456;7.622;2022-11-20T06:10:14;23.97;;;18.63;;
15114;SDS011;7658;51.456;7.622;2022-11-20T06:12:40;25.37;;;18.90;;
15114;SDS011;7658;51.456;7.622;2022-11-20T06:15:06;29.13;;;19.63;;
15114;SDS011;7658;51.456;7.622;2022-11-20T06:17:32;27.70;;;19.97;;
15114;SDS011;7658;51.456;7.622;2022-11-20T06:19:57;24.30;;;18.77;;
15114;SDS011;7658;51.456;7.622;2022-11-20T06:22:23;28.50;;;18.67;;
15114;SDS011;7658;51.456;7.622;2022-11-20T06:24:49;32.27;;;20.33;;
15114;SDS011;7658;51.456;7.622;2022-11-20T06:27:15;31.50;;;20.47;;
15114;SDS011;7658;51.456;7.622;2022-11-20T06:29:41;26.70;;;18.90;;
15114;SDS011;7658;51.456;7.622;2022-11-20T06:32:07;31.57;;;19.53;;
15114;SDS011;7658;51.456;7.622;2022-11-20T06:34:32;28.00;;;20.03;;
15114;SDS011;7658;51.456;7.622;2022-11-20T06:36:58;30.17;;;19.90;;
15114;SDS011;7658;51.456;7.622;2022-11-20T06:39:24;28.43;;;19.33;;
15114;SDS011;7658;51.456;7.622;2022-11-20T06:41:50;29.10;;;20.53;;
15114;SDS011;7658;51.456;7.622;2022-11-20T06:44:15;29.40;;;19.57;;
15114;SDS011;7658;51.456;7.622;2022-11-20T06:46:41;34.17;;;20.50;;
15114;SDS011;7658;51.456;7.622;2022-11-20T06:49:07;26.43;;;18.47;;
15114;SDS011;7658;51.456;7.622;2022-11-20T06:51:32;31.27;;;20.10;;
15114;SDS011;7658;51.456;7.622;2022-11-20T06:53:58;28.13;;;19.43;;
15114;SDS011;7658;51.456;7.622;2022-11-20T06:56:25;28.57;;;18.80;;
15114;SDS011;7658;51.456;7.622;2022-11-20T06:58:52;28.90;;;20.57;;
15114;SDS011;7658;51.456;7.622;2022-11-20T07:01:17;32.10;;;17.80;;
15114;SDS011;7658;51.456;7.622;2022-11-20T07:03:43;27.37;;;20.20;;
15114;SDS011;7658;51.456;7.622;2022-11-20T07:06:09;26.67;;;18.57;;
15114;SDS011;7658;51.456;7.622;2022-11-20T07:08:35;26.43;;;19.27;;
15114;SDS011;7658;51.456;7.622;2022-11-20T07:11:05;29.43;;;19.80;;
15114;SDS011;7658;51.456;7.622;2022-11-20T07:13:31;25.37;;;18.80;;
15114;SDS011;7658;51.456;7.622;2022-11-20T07:16:01;27.37;;;19.03;;
15114;SDS011;7658;51.456;7.622;2022-11-20T07:18:28;24.60;;;18.80;;
15114;SDS011;7658;51.456;7.622;2022-11-20T07:20:54;27.57;;;18.67;;
15114;SDS011;7658;51.456;7.622;2022-11-20T07:23:20;27.83;;;19.37;;
15114;SDS011;7658;51.456;7.622;2022-11-20T07:25:46;27.50;;;18.60;;
15114;SDS011;7658;51.456;7.622;2022-11-20T07:28:12;28.93;;;19.70;;
15114;SDS011;7658;51.456;7.622;2022-11-20T07:30:38;23.20;;;17.67;;
15114;SDS011;7658;51.456;7.622;2022-11-20T07:33:04;27.50;;;19.50;;
15114;SDS011;7658;51.456;7.622;2022-11-20T07:35:30;26.17;;;18.77;;
15114;SDS011;7658;51.456;7.622;2022-11-20T07:37:56;25.30;;;18.20;;
15114;SDS011;7658;51.456;7.622;2022-11-20T07:40:21;25.13;;;18.27;;
15114;SDS011;7658;51.456;7.622;2022-11-20T07:42:51;24.53;;;17.80;;
15114;SDS011;7658;51.456;7.622;2022-11-20T07:45:18;23.93;;;18.37;;
15114;SDS011;7658;51.456;7.622;2022-11-20T07:47:44;28.97;;;17.67;;
15114;SDS011;7658;51.456;7.622;2022-11-20T07:50:10;25.50;;;18.80;;
15114;SDS011;7658;51.456;7.622;2022-11-20T07:52:37;25.37;;;18.20;;
15114;SDS011;7658;51.456;7.622;2022-11-20T07:55:02;26.07;;;18.40;;
15114;SDS011;7658;51.456;7.622;2022-11-20T07:57:28;25.57;;;18.00;;
15114;SDS011;7658;51.456;7.622;2022-11-20T07:59:55;25.70;;;18.70;;
15114;SDS011;7658;51.456;7.622;2022-11-20T08:02:21;26.47;;;19.23;;
15114;SDS011;7658;51.456;7.622;2022-11-20T08:04:47;27.37;;;18.80;;
15114;SDS011;7658;51.456;7.622;2022-11-20T08:07:13;26.30;;;18.53;;
15114;SDS011;7658;51.456;7.622;2022-11-20T08:09:39;27.20;;;20.07;;
15114;SDS011;7658;51.456;7.622;2022-11-20T08:12:04;24.73;;;18.57;;
15114;SDS011;7658;51.456;7.622;2022-11-20T08:14:49;28.70;;;20.03;;
15114;SDS011;7658;51.456;7.622;2022-11-20T08:17:14;33.03;;;22.27;;
15114;SDS011;7658;51.456;7.622;2022-11-20T08:19:40;71.30;;;40.40;;
15114;SDS011;7658;51.456;7.622;2022-11-20T08:22:06;47.13;;;30.53;;
15114;SDS011;7658;51.456;7.622;2022-11-20T08:24:32;43.63;;;26.83;;
15114;SDS011;7658;51.456;7.622;2022-11-20T08:26:58;33.87;;;22.83;;
15114;SDS011;7658;51.456;7.622;2022-11-20T08:29:24;29.37;;;21.73;;
15114;SDS011;7658;51.456;7.622;2022-11-20T08:31:53;30.70;;;21.17;;
15114;SDS011;7658;51.456;7.622;2022-11-20T08:34:18;28.77;;;20.60;;
15114;SDS011;7658;51.456;7.622;2022-11-20T08:36:44;32.73;;;21.70;;
15114;SDS011;7658;51.456;7.622;2022-11-20T08:39:11;26.07;;;20.27;;
15114;SDS011;7658;51.456;7.622;2022-11-20T08:41:37;28.00;;;19.50;;
15114;SDS011;7658;51.456;7.622;2022-11-20T08:44:03;31.07;;;18.93;;
15114;SDS011;7658;51.456;7.622;2022-11-20T08:46:32;26.10;;;19.67;;
15114;SDS011;7658;51.456;7.622;2022-11-20T08:49:02;28.07;;;19.87;;
15114;SDS011;7658;51.456;7.622;2022-11-20T08:51:29;32.00;;;20.90;;
15114;SDS011;7658;51.456;7.622;2022-11-20T08:53:55;30.10;;;20.03;;
15114;SDS011;7658;51.456;7.622;2022-11-20T08:56:21;25.27;;;18.93;;
15114;SDS011;7658;51.456;7.622;2022-11-20T08:58:47;27.50;;;20.73;;
15114;SDS011;7658;51.456;7.622;2022-11-20T09:01:14;29.27;;;20.73;;
15114;SDS011;7658;51.456;7.622;2022-11-20T09:03:40;31.67;;;21.47;;
15114;SDS011;7658;51.456;7.622;2022-11-20T09:06:06;28.40;;;21.47;;
15114;SDS011;7658;51.456;7.622;2022-11-20T09:08:32;31.10;;;22.67;;
15114;SDS011;7658;51.456;7.622;2022-11-20T09:10:59;30.40;;;22.07;;
15114;SDS011;7658;51.456;7.622;2022-11-20T09:13:26;29.10;;;20.53;;
15114;SDS011;7658;51.456;7.622;2022-11-20T09:15:53;34.63;;;23.00;;
15114;SDS011;7658;51.456;7.622;2022-11-20T09:18:20;29.83;;;20.83;;
15114;SDS011;7658;51.456;7.622;2022-11-20T09:20:46;28.73;;;19.27;;
15114;SDS011;7658;51.456;7.622;2022-11-20T09:23:12;30.70;;;21.27;;
15114;SDS011;7658;51.456;7.622;2022-11-20T09:25:38;26.77;;;20.17;;
15114;SDS011;7658;51.456;7.622;2022-11-20T09:28:04;26.87;;;19.80;;
15114;SDS011;7658;51.456;7.622;2022-11-20T09:30:30;26.47;;;19.33;;
15114;SDS011;7658;51.456;7.622;2022-11-20T09:32:56;27.97;;;20.17;;
15114;SDS011;7658;51.456;7.622;2022-11-20T09:35:22;33.63;;;22.57;;
15114;SDS011;7658;51.456;7.622;2022-11-20T09:37:48;31.43;;;20.90;;
15114;SDS011;7658;51.456;7.622;2022-11-20T09:40:24;31.87;;;22.63;;
15114;SDS011;7658;51.456;7.622;2022-11-20T09:56:30;29.13;;;20.67;;
15114;SDS011;7658;51.456;7.622;2022-11-20T09:58:59;29.53;;;20.93;;
15114;SDS011;7658;51.456;7.622;2022-11-20T10:01:30;26.13;;;20.60;;
15114;SDS011;7658;51.456;7.622;2022-11-20T10:04:04;28.50;;;20.07;;
15114;SDS011;7658;51.456;7.622;2022-11-20T10:14:32;23.90;;;19.53;;
15114;SDS011;7658;51.456;7.622;2022-11-20T10:17:27;23.53;;;18.93;;
15114;SDS011;7658;51.456;7.622;2022-11-20T10:22:57;23.17;;;18.40;;
15114;SDS011;7658;51.456;7.622;2022-11-20T10:25:38;24.50;;;19.93;;
15114;SDS011;7658;51.456;7.622;2022-11-20T10:28:54;24.40;;;19.73;;
15114;SDS011;7658;51.456;7.622;2022-11-20T10:31:17;25.50;;;18.40;;
15114;SDS011;7658;51.456;7.622;2022-11-20T10:33:56;21.63;;;16.73;;
15114;SDS011;7658;51.456;7.622;2022-11-20T10:36:28;19.70;;;16.40;;
15114;SDS011;7658;51.456;7.622;2022-11-20T10:43:04;20.43;;;16.73;;
15114;SDS011;7658;51.456;7.622;2022-11-20T10:47:50;19.77;;;16.40;;
15114;SDS011;7658;51.456;7.622;2022-11-20T10:50:19;21.47;;;17.10;;
15114;SDS011;7658;51.456;7.622;2022-11-20T10:53:05;22.23;;;18.07;;
15114;SDS011;7658;51.456;7.622;2022-11-20T10:55:42;20.07;;;17.10;;
15114;SDS011;7658;51.456;7.622;2022-11-20T10:58:41;21.10;;;17.83;;
15114;SDS011;7658;51.456;7.622;2022-11-20T11:01:29;25.93;;;18.70;;
15114;SDS011;7658;51.456;7.622;2022-11-20T11:03:55;24.33;;;18.83;;
15114;SDS011;7658;51.456;7.622;2022-11-20T11:09:02;20.87;;;16.70;;
15114;SDS011;7658;51.456;7.622;2022-11-20T11:11:34;19.33;;;16.20;;
15114;SDS011;7658;51.456;7.622;2022-11-20T11:14:41;19.27;;;15.93;;
15114;SDS011;7658;51.456;7.622;2022-11-20T11:16:52;23.30;;;17.40;;
15114;SDS011;7658;51.456;7.622;2022-11-20T11:19:20;20.40;;;15.83;;
15114;SDS011;7658;51.456;7.622;2022-11-20T11:21:46;20.03;;;15.83;;
15114;SDS011;7658;51.456;7.622;2022-11-20T11:24:21;21.10;;;15.70;;
15114;SDS011;7658;51.456;7.622;2022-11-20T11:26:52;18.80;;;15.73;;
15114;SDS011;7658;51.456;7.622;2022-11-20T11:29:28;20.97;;;15.83;;
15114;SDS011;7658;51.456;7.622;2022-11-20T11:34:38;19.83;;;15.80;;
15114;SDS011;7658;51.456;7.622;2022-11-20T11:37:04;22.53;;;16.23;;
15114;SDS011;7658;51.456;7.622;2022-11-20T11:39:35;19.70;;;16.33;;
15114;SDS011;7658;51.456;7.622;2022-11-20T11:42:05;21.07;;;16.57;;
15114;SDS011;7658;51.456;7.622;2022-11-20T11:44:33;19.40;;;15.07;;
15114;SDS011;7658;51.456;7.622;2022-11-20T11:47:25;21.60;;;16.80;;
15114;SDS011;7658;51.456;7.622;2022-11-20T11:50:02;19.93;;;16.33;;
15114;SDS011;7658;51.456;7.622;2022-11-20T12:00:45;17.37;;;14.40;;
15114;SDS011;7658;51.456;7.622;2022-11-20T12:03:20;20.17;;;14.40;;
15114;SDS011;7658;51.456;7.622;2022-11-20T12:06:17;21.67;;;14.33;;
15114;SDS011;7658;51.456;7.622;2022-11-20T12:11:29;16.50;;;14.43;;
15114;SDS011;7658;51.456;7.622;2022-11-20T12:14:22;18.77;;;14.87;;
15114;SDS011;7658;51.456;7.622;2022-11-20T12:17:01;18.00;;;14.33;;
15114;SDS011;7658;51.456;7.622;2022-11-20T12:19:29;18.13;;;13.90;;
15114;SDS011;7658;51.456;7.622;2022-11-20T12:25:03;17.97;;;14.67;;
15114;SDS011;7658;51.456;7.622;2022-11-20T12:30:17;20.17;;;15.03;;
15114;SDS011;7658;51.456;7.622;2022-11-20T12:35:53;18.53;;;13.97;;
15114;SDS011;7658;51.456;7.622;2022-11-20T12:38:39;18.07;;;14.73;;
15114;SDS011;7658;51.456;7.622;2022-11-20T12:53:05;18.80;;;14.70;;
15114;SDS011;7658;51.456;7.622;2022-11-20T13:03:47;18.77;;;13.93;;
15114;SDS011;7658;51.456;7.622;2022-11-20T13:06:18;16.70;;;14.30;;
15114;SDS011;7658;51.456;7.622;2022-11-20T13:08:48;17.30;;;14.13;;
15114;SDS011;7658;51.456;7.622;2022-11-20T13:16:36;19.97;;;15.07;;
15114;SDS011;7658;51.456;7.622;2022-11-20T13:19:09;18.93;;;14.33;;
15114;SDS011;7658;51.456;7.622;2022-11-20T13:21:39;17.00;;;14.07;;
15114;SDS011;7658;51.456;7.622;2022-11-20T13:24:07;16.60;;;13.67;;
15114;SDS011;7658;51.456;7.622;2022-11-20T13:29:32;19.57;;;14.47;;
15114;SDS011;7658;51.456;7.622;2022-11-20T13:32:06;17.60;;;13.80;;
15114;SDS011;7658;51.456;7.622;2022-11-20T13:34:38;20.40;;;14.20;;
15114;SDS011;7658;51.456;7.622;2022-11-20T13:37:24;18.23;;;13.93;;
15114;SDS011;7658;51.456;7.622;2022-11-20T13:48:34;18.97;;;14.47;;
15114;SDS011;7658;51.456;7.622;2022-11-20T13:51:06;20.07;;;15.37;;
15114;SDS011;7658;51.456;7.622;2022-11-20T13:53:36;19.30;;;14.77;;
15114;SDS011;7658;51.456;7.622;2022-11-20T13:56:46;19.70;;;15.87;;
15114;SDS011;7658;51.456;7.622;2022-11-20T14:02:05;20.77;;;15.40;;
15114;SDS011;7658;51.456;7.622;2022-11-20T14:04:46;19.90;;;14.57;;
15114;SDS011;7658;51.456;7.622;2022-11-20T14:07:14;18.93;;;14.23;;
15114;SDS011;7658;51.456;7.622;2022-11-20T14:09:49;18.00;;;13.70;;
15114;SDS011;7658;51.456;7.622;2022-11-20T14:12:31;19.63;;;14.73;;
15114;SDS011;7658;51.456;7.622;2022-11-20T14:14:58;15.90;;;13.60;;
15114;SDS011;7658;51.456;7.622;2022-11-20T14:17:29;22.00;;;15.90;;
15114;SDS011;7658;51.456;7.622;2022-11-20T14:20:01;21.27;;;15.83;;
15114;SDS011;7658;51.456;7.622;2022-11-20T14:22:30;23.47;;;15.57;;
15114;SDS011;7658;51.456;7.622;2022-11-20T14:27:48;19.90;;;15.93;;
15114;SDS011;7658;51.456;7.622;2022-11-20T14:30:21;18.93;;;14.70;;
15114;SDS011;7658;51.456;7.622;2022-11-20T14:32:49;19.27;;;14.77;;
15114;SDS011;7658;51.456;7.622;2022-11-20T14:35:29;19.57;;;14.20;;
15114;SDS011;7658;51.456;7.622;2022-11-20T14:38:00;17.73;;;14.40;;
15114;SDS011;7658;51.456;7.622;2022-11-20T14:40:31;18.60;;;14.90;;
15114;SDS011;7658;51.456;7.622;2022-11-20T14:43:00;26.80;;;22.33;;
15114;SDS011;7658;51.456;7.622;2022-11-20T14:45:27;24.47;;;20.63;;
15114;SDS011;7658;51.456;7.622;2022-11-20T14:47:54;23.03;;;17.80;;
15114;SDS011;7658;51.456;7.622;2022-11-20T14:50:25;20.53;;;17.53;;
15114;SDS011;7658;51.456;7.622;2022-11-20T14:52:53;21.57;;;17.33;;
15114;SDS011;7658;51.456;7.622;2022-11-20T14:55:26;19.83;;;16.43;;
15114;SDS011;7658;51.456;7.622;2022-11-20T14:58:06;21.07;;;16.47;;
15114;SDS011;7658;51.456;7.622;2022-11-20T15:00:56;22.90;;;17.37;;
15114;SDS011;7658;51.456;7.622;2022-11-20T15:03:30;23.23;;;16.50;;
15114;SDS011;7658;51.456;7.622;2022-11-20T15:05:57;22.57;;;15.80;;
15114;SDS011;7658;51.456;7.622;2022-11-20T15:08:23;22.03;;;16.40;;
15114;SDS011;7658;51.456;7.622;2022-11-20T15:10:49;24.30;;;16.73;;
15114;SDS011;7658;51.456;7.622;2022-11-20T15:13:26;24.13;;;17.43;;
15114;SDS011;7658;51.456;7.622;2022-11-20T15:15:57;22.17;;;17.00;;
15114;SDS011;7658;51.456;7.622;2022-11-20T15:18:32;25.80;;;17.43;;
15114;SDS011;7658;51.456;7.622;2022-11-20T15:21:03;27.70;;;18.77;;
15114;SDS011;7658;51.456;7.622;2022-11-20T15:23:34;28.33;;;20.00;;
15114;SDS011;7658;51.456;7.622;2022-11-20T15:25:59;22.37;;;17.03;;
15114;SDS011;7658;51.456;7.622;2022-11-20T15:28:32;22.90;;;17.20;;
15114;SDS011;7658;51.456;7.622;2022-11-20T15:31:00;23.23;;;16.53;;
15114;SDS011;7658;51.456;7.622;2022-11-20T15:33:28;24.60;;;16.17;;
15114;SDS011;7658;51.456;7.622;2022-11-20T15:35:54;28.70;;;18.97;;
15114;SDS011;7658;51.456;7.622;2022-11-20T15:38:19;26.10;;;20.17;;
15114;SDS011;7658;51.456;7.622;2022-11-20T15:40:45;25.40;;;19.47;;
15114;SDS011;7658;51.456;7.622;2022-11-20T15:43:11;29.67;;;19.93;;
15114;SDS011;7658;51.456;7.622;2022-11-20T15:45:38;29.37;;;19.50;;
15114;SDS011;7658;51.456;7.622;2022-11-20T15:48:04;27.40;;;19.90;;
15114;SDS011;7658;51.456;7.622;2022-11-20T15:50:38;30.40;;;20.13;;
15114;SDS011;7658;51.456;7.622;2022-11-20T15:53:09;26.90;;;19.13;;
15114;SDS011;7658;51.456;7.622;2022-11-20T15:55:35;29.63;;;20.67;;
15114;SDS011;7658;51.456;7.622;2022-11-20T15:58:01;26.57;;;18.73;;
15114;SDS011;7658;51.456;7.622;2022-11-20T16:00:26;27.50;;;19.13;;
15114;SDS011;7658;51.456;7.622;2022-11-20T16:02:52;32.60;;;21.03;;
15114;SDS011;7658;51.456;7.622;2022-11-20T16:05:18;28.63;;;19.57;;
15114;SDS011;7658;51.456;7.622;2022-11-20T16:07:44;29.37;;;19.60;;
15114;SDS011;7658;51.456;7.622;2022-11-20T16:10:09;33.20;;;21.13;;
15114;SDS011;7658;51.456;7.622;2022-11-20T16:12:35;28.63;;;19.83;;
15114;SDS011;7658;51.456;7.622;2022-11-20T16:15:19;31.83;;;22.40;;
15114;SDS011;7658;51.456;7.622;2022-11-20T16:18:03;32.73;;;22.33;;
15114;SDS011;7658;51.456;7.622;2022-11-20T16:20:29;37.23;;;24.80;;
15114;SDS011;7658;51.456;7.622;2022-11-20T16:22:55;36.97;;;23.37;;
15114;SDS011;7658;51.456;7.622;2022-11-20T16:25:20;30.60;;;21.17;;
15114;SDS011;7658;51.456;7.622;2022-11-20T16:27:46;32.30;;;20.67;;